createdAt,value
2023-03-19T00:00:45.114Z,6.02
2023-03-19T00:01:47.490Z,6.07
2023-03-19T00:02:51.398Z,6.09
2023-03-19T00:03:54.296Z,6.05
2023-03-19T00:04:56.700Z,6.04
2023-03-19T00:05:59.638Z,6.08
2023-03-19T00:07:02.127Z,5.94
2023-03-19T00:08:05.738Z,5.85
2023-03-19T00:09:08.612Z,5.86
2023-03-19T00:10:12.716Z,5.90
2023-03-19T00:11:15.172Z,5.95
2023-03-19T00:12:17.654Z,5.98
2023-03-19T00:13:20.414Z,5.96
2023-03-19T00:14:22.836Z,5.94
2023-03-19T00:15:25.588Z,5.96
2023-03-19T00:16:28.118Z,5.94
2023-03-19T00:17:31.409Z,5.82
2023-03-19T00:18:34.205Z,5.80
2023-03-19T00:19:36.669Z,5.82
2023-03-19T00:20:39.086Z,5.74
2023-03-19T00:21:41.962Z,5.71
2023-03-19T00:22:45.273Z,5.77
2023-03-19T00:23:48.703Z,5.73
2023-03-19T00:24:51.789Z,5.72
2023-03-19T00:25:54.424Z,5.73
2023-03-19T00:26:56.993Z,5.75
2023-03-19T00:28:01.064Z,5.76
2023-03-19T00:29:05.353Z,5.79
2023-03-19T00:30:08.806Z,5.74
2023-03-19T00:31:14.788Z,5.77
2023-03-19T00:32:17.062Z,5.75
2023-03-19T00:33:21.228Z,5.77
2023-03-19T00:34:24.147Z,5.81
2023-03-19T00:35:26.615Z,5.81
2023-03-19T00:36:29.789Z,5.79
2023-03-19T00:37:33.137Z,5.82
2023-03-19T00:38:35.958Z,5.85
2023-03-19T00:39:38.814Z,5.89
2023-03-19T00:40:42.133Z,5.88
2023-03-19T00:41:46.956Z,5.89
2023-03-19T00:42:49.336Z,5.96
2023-03-19T00:43:55.669Z,6.02
2023-03-19T00:44:58.426Z,6.01
2023-03-19T00:46:00.804Z,5.97
2023-03-19T00:47:03.043Z,5.72
2023-03-19T00:48:06.077Z,5.77
2023-03-19T00:49:08.421Z,5.79
2023-03-19T00:50:12.267Z,5.78
2023-03-19T00:51:15.443Z,5.78
2023-03-19T00:52:18.216Z,5.78
2023-03-19T00:53:20.976Z,5.81
2023-03-19T00:54:23.380Z,5.82
2023-03-19T00:55:26.830Z,5.85
2023-03-19T00:56:30.012Z,5.88
2023-03-19T00:57:32.323Z,5.90
2023-03-19T00:58:35.954Z,5.96
2023-03-19T00:59:38.128Z,5.92
2023-03-19T01:00:41.470Z,5.88
2023-03-19T01:01:45.918Z,5.84
2023-03-19T01:02:48.755Z,5.84
2023-03-19T01:03:52.592Z,5.88
2023-03-19T01:04:54.945Z,5.95
2023-03-19T01:06:00.037Z,6.04
2023-03-19T01:07:02.566Z,6.02
2023-03-19T01:08:05.840Z,5.99
2023-03-19T01:09:08.201Z,5.97
2023-03-19T01:10:13.025Z,5.92
2023-03-19T01:11:16.655Z,5.86
2023-03-19T01:12:19.335Z,5.78
2023-03-19T01:13:21.724Z,5.73
2023-03-19T01:14:24.907Z,5.69
2023-03-19T01:15:27.330Z,5.65
2023-03-19T01:16:29.981Z,5.58
2023-03-19T01:17:32.810Z,5.55
2023-03-19T01:18:35.680Z,5.45
2023-03-19T01:19:37.980Z,5.39
2023-03-19T01:20:43.518Z,5.31
2023-03-19T01:21:45.762Z,5.26
2023-03-19T01:22:50.349Z,5.18
2023-03-19T01:23:53.673Z,5.10
2023-03-19T01:24:57.603Z,5.02
2023-03-19T01:26:00.399Z,5.03
2023-03-19T01:27:04.292Z,4.98
2023-03-19T01:28:12.403Z,4.96
2023-03-19T01:29:16.195Z,4.93
2023-03-19T01:30:20.083Z,4.92
2023-03-19T01:31:26.999Z,4.87
2023-03-19T01:32:48.026Z,4.87
2023-03-19T01:34:05.208Z,4.91
2023-03-19T01:35:11.092Z,4.87
2023-03-19T01:36:14.004Z,4.86
2023-03-19T01:37:24.167Z,4.84
2023-03-19T01:38:28.229Z,4.80
2023-03-19T01:39:33.611Z,4.83
2023-03-19T01:40:46.955Z,4.82
2023-03-19T01:41:50.036Z,4.84
2023-03-19T01:43:18.803Z,4.90
2023-03-19T01:44:31.951Z,4.87
2023-03-19T01:45:56.637Z,4.84
2023-03-19T01:47:26.082Z,4.83
2023-03-19T01:48:50.134Z,4.81
2023-03-19T01:49:56.485Z,4.79
2023-03-19T01:52:10.393Z,4.87
2023-03-19T01:53:27.440Z,4.74
2023-03-19T01:54:39.366Z,4.77
2023-03-19T01:55:56.350Z,4.74
2023-03-19T01:57:16.941Z,4.78
2023-03-19T01:58:26.123Z,4.78
2023-03-19T01:59:51.961Z,4.79
2023-03-19T02:01:03.909Z,4.79
2023-03-19T02:02:14.538Z,4.75
2023-03-19T02:03:17.288Z,4.70
2023-03-19T02:04:24.112Z,4.68
2023-03-19T02:05:26.527Z,4.47
2023-03-19T02:06:32.575Z,4.47
2023-03-19T02:07:36.714Z,4.48
2023-03-19T02:08:40.323Z,4.49
2023-03-19T02:09:45.169Z,4.49
2023-03-19T02:10:47.786Z,4.46
2023-03-19T02:11:51.088Z,4.45
2023-03-19T02:12:53.792Z,4.44
2023-03-19T02:13:57.283Z,4.43
2023-03-19T02:14:59.806Z,4.42
2023-03-19T02:16:03.737Z,4.43
2023-03-19T02:17:08.059Z,4.40
2023-03-19T02:18:11.197Z,4.43
2023-03-19T02:19:21.168Z,4.45
2023-03-19T02:20:33.262Z,4.43
2023-03-19T02:21:36.007Z,4.39
2023-03-19T02:22:41.911Z,4.38
2023-03-19T02:24:03.149Z,4.34
2023-03-19T02:25:20.354Z,4.35
2023-03-19T02:26:26.871Z,4.31
2023-03-19T02:27:32.286Z,4.29
2023-03-19T02:28:38.330Z,4.26
2023-03-19T02:29:41.007Z,4.25
2023-03-19T02:30:45.233Z,4.25
2023-03-19T02:31:47.560Z,4.25
2023-03-19T02:32:49.890Z,4.28
2023-03-19T02:34:01.022Z,4.24
2023-03-19T02:35:03.782Z,4.23
2023-03-19T02:36:10.033Z,4.24
2023-03-19T02:37:27.959Z,4.21
2023-03-19T02:38:33.420Z,4.19
2023-03-19T02:39:58.791Z,4.19
2023-03-19T02:41:04.485Z,4.25
2023-03-19T02:42:09.421Z,4.28
2023-03-19T02:43:12.131Z,4.28
2023-03-19T02:44:15.221Z,4.29
2023-03-19T02:45:18.266Z,4.26
2023-03-19T02:46:20.790Z,4.27
2023-03-19T02:47:24.213Z,4.28
2023-03-19T02:48:26.676Z,4.29
2023-03-19T02:49:28.990Z,4.32
2023-03-19T02:50:32.432Z,4.38
2023-03-19T02:51:36.931Z,4.38
2023-03-19T02:52:39.360Z,4.40
2023-03-19T02:53:41.505Z,4.45
2023-03-19T02:54:44.420Z,4.44
2023-03-19T02:55:47.390Z,4.46
2023-03-19T02:56:51.820Z,4.46
2023-03-19T02:57:55.299Z,4.50
2023-03-19T02:58:57.748Z,4.54
2023-03-19T03:00:00.132Z,4.54
2023-03-19T03:01:03.689Z,4.52
2023-03-19T03:02:06.873Z,4.55
2023-03-19T03:03:09.867Z,4.53
2023-03-19T03:04:14.214Z,4.55
2023-03-19T03:05:16.830Z,4.54
2023-03-19T03:06:19.322Z,4.54
2023-03-19T03:07:22.397Z,4.56
2023-03-19T03:08:24.694Z,4.55
2023-03-19T03:09:27.153Z,4.57
2023-03-19T03:10:30.448Z,4.56
2023-03-19T03:11:32.907Z,4.56
2023-03-19T03:12:36.083Z,4.56
2023-03-19T03:13:38.704Z,4.48
2023-03-19T03:14:41.284Z,4.46
2023-03-19T03:15:44.165Z,4.46
2023-03-19T03:16:46.703Z,4.45
2023-03-19T03:17:48.962Z,4.42
2023-03-19T03:18:51.451Z,4.41
2023-03-19T03:19:55.142Z,4.39
2023-03-19T03:20:57.852Z,4.39
2023-03-19T03:22:00.936Z,4.40
2023-03-19T03:23:04.745Z,4.37
2023-03-19T03:24:08.844Z,4.32
2023-03-19T03:25:12.415Z,4.28
2023-03-19T03:26:15.212Z,4.29
2023-03-19T03:27:18.563Z,4.28
2023-03-19T03:28:20.863Z,4.24
2023-03-19T03:29:23.196Z,4.19
2023-03-19T03:30:26.269Z,4.13
2023-03-19T03:31:29.372Z,4.08
2023-03-19T03:32:32.896Z,4.05
2023-03-19T03:33:35.833Z,4.01
2023-03-19T03:34:38.942Z,4.05
2023-03-19T03:35:41.284Z,4.06
2023-03-19T03:36:45.757Z,4.05
2023-03-19T03:37:49.825Z,4.06
2023-03-19T03:38:52.297Z,4.11
2023-03-19T03:39:54.742Z,4.10
2023-03-19T03:40:58.189Z,4.09
2023-03-19T03:42:01.479Z,4.05
2023-03-19T03:43:04.882Z,4.03
2023-03-19T03:44:09.645Z,3.99
2023-03-19T03:45:13.887Z,3.97
2023-03-19T03:46:17.260Z,3.94
2023-03-19T03:47:20.981Z,3.94
2023-03-19T03:48:23.548Z,3.95
2023-03-19T03:49:26.510Z,3.98
2023-03-19T03:50:29.005Z,3.93
2023-03-19T03:51:32.798Z,3.88
2023-03-19T03:52:35.602Z,3.83
2023-03-19T03:53:38.111Z,3.78
2023-03-19T03:54:41.421Z,3.76
2023-03-19T03:55:43.774Z,3.76
2023-03-19T03:56:47.162Z,3.78
2023-03-19T03:57:49.662Z,3.76
2023-03-19T03:58:52.370Z,3.77
2023-03-19T03:59:55.122Z,3.76
2023-03-19T04:00:58.056Z,3.76
2023-03-19T04:02:01.038Z,3.79
2023-03-19T04:03:03.750Z,3.78
2023-03-19T04:04:06.041Z,3.81
2023-03-19T04:05:09.329Z,3.83
2023-03-19T04:06:18.122Z,3.81
2023-03-19T04:07:24.530Z,3.80
2023-03-19T04:08:28.709Z,3.77
2023-03-19T04:09:30.920Z,3.73
2023-03-19T04:10:36.140Z,3.67
2023-03-19T04:11:40.929Z,3.57
2023-03-19T04:12:45.339Z,3.49
2023-03-19T04:13:47.567Z,3.38
2023-03-19T04:14:50.617Z,3.31
2023-03-19T04:15:54.004Z,3.29
2023-03-19T04:16:57.260Z,3.25
2023-03-19T04:18:00.844Z,3.24
2023-03-19T04:19:03.965Z,3.27
2023-03-19T04:20:07.542Z,3.29
2023-03-19T04:21:09.843Z,3.33
2023-03-19T04:22:12.294Z,3.34
2023-03-19T04:23:14.882Z,3.30
2023-03-19T04:24:17.243Z,3.27
2023-03-19T04:25:20.117Z,3.25
2023-03-19T04:26:22.724Z,3.28
2023-03-19T04:27:25.380Z,3.33
2023-03-19T04:28:28.785Z,3.40
2023-03-19T04:29:31.518Z,3.44
2023-03-19T04:30:35.668Z,3.44
2023-03-19T04:31:38.735Z,3.47
2023-03-19T04:32:41.192Z,3.46
2023-03-19T04:33:43.948Z,3.50
2023-03-19T04:34:48.019Z,3.54
2023-03-19T04:35:50.579Z,3.54
2023-03-19T04:36:53.702Z,3.55
2023-03-19T04:37:56.387Z,3.54
2023-03-19T04:38:58.823Z,3.53
2023-03-19T04:40:01.688Z,3.54
2023-03-19T04:41:06.613Z,3.53
2023-03-19T04:42:11.006Z,3.51
2023-03-19T04:43:15.363Z,3.48
2023-03-19T04:44:19.442Z,3.43
2023-03-19T04:45:21.948Z,3.42
2023-03-19T04:46:24.598Z,3.42
2023-03-19T04:47:26.998Z,3.42
2023-03-19T04:48:31.684Z,3.40
2023-03-19T04:49:34.666Z,3.44
2023-03-19T04:50:38.911Z,3.47
2023-03-19T04:51:42.775Z,3.48
2023-03-19T04:52:45.738Z,3.50
2023-03-19T04:53:49.849Z,3.52
2023-03-19T04:54:52.355Z,3.58
2023-03-19T04:55:55.464Z,3.60
2023-03-19T04:56:58.363Z,3.62
2023-03-19T04:58:02.199Z,3.64
2023-03-19T04:59:06.170Z,3.63
2023-03-19T05:00:10.306Z,3.59
2023-03-19T05:01:13.993Z,3.54
2023-03-19T05:02:18.497Z,3.48
2023-03-19T05:03:21.449Z,3.50
2023-03-19T05:04:24.331Z,3.54
2023-03-19T05:05:28.511Z,3.56
2023-03-19T05:06:32.221Z,3.70
2023-03-19T05:07:34.719Z,3.70
2023-03-19T05:08:38.242Z,3.82
2023-03-19T05:09:42.913Z,3.91
2023-03-19T05:10:45.499Z,4.00
2023-03-19T05:11:47.932Z,4.10
2023-03-19T05:12:52.755Z,4.14
2023-03-19T05:13:55.352Z,4.14
2023-03-19T05:14:58.409Z,4.15
2023-03-19T05:16:03.163Z,4.12
2023-03-19T05:17:07.093Z,4.06
2023-03-19T05:18:12.414Z,4.05
2023-03-19T05:19:16.869Z,4.04
2023-03-19T05:20:20.356Z,4.03
2023-03-19T05:21:26.179Z,3.99
2023-03-19T05:22:28.528Z,3.99
2023-03-19T05:23:31.856Z,3.98
2023-03-19T05:24:38.884Z,3.96
2023-03-19T05:25:41.209Z,3.95
2023-03-19T05:26:45.806Z,3.92
2023-03-19T05:27:58.596Z,3.90
2023-03-19T05:29:01.534Z,3.87
2023-03-19T05:30:07.353Z,3.90
2023-03-19T05:31:26.967Z,3.87
2023-03-19T05:32:30.317Z,3.87
2023-03-19T05:33:34.881Z,3.89
2023-03-19T05:34:37.327Z,3.91
2023-03-19T05:35:40.071Z,3.91
2023-03-19T05:36:44.389Z,3.93
2023-03-19T05:37:48.586Z,3.96
2023-03-19T05:38:50.792Z,3.96
2023-03-19T05:39:55.155Z,3.99
2023-03-19T05:41:03.884Z,4.02
2023-03-19T05:42:08.344Z,4.00
2023-03-19T05:43:11.635Z,4.04
2023-03-19T05:44:14.767Z,4.09
2023-03-19T05:45:36.722Z,4.14
2023-03-19T05:46:42.180Z,4.13
2023-03-19T05:47:49.526Z,4.12
2023-03-19T05:48:52.355Z,4.13
2023-03-19T05:49:55.017Z,4.14
2023-03-19T05:50:58.815Z,4.17
2023-03-19T05:52:03.546Z,4.21
2023-03-19T05:53:06.442Z,4.24
2023-03-19T05:54:09.935Z,4.26
2023-03-19T05:55:14.355Z,4.26
2023-03-19T05:56:18.909Z,4.31
2023-03-19T05:57:26.280Z,4.35
2023-03-19T05:58:31.584Z,4.36
2023-03-19T05:59:34.890Z,4.39
2023-03-19T06:00:41.060Z,4.43
2023-03-19T06:01:43.601Z,4.50
2023-03-19T06:02:46.400Z,4.53
2023-03-19T06:03:53.718Z,4.57
2023-03-19T06:04:57.326Z,4.61
2023-03-19T06:06:01.633Z,4.65
2023-03-19T06:07:09.078Z,4.69
2023-03-19T06:08:12.085Z,4.73
2023-03-19T06:09:31.412Z,4.74
2023-03-19T06:10:35.993Z,4.77
2023-03-19T06:11:42.412Z,4.80
2023-03-19T06:12:47.220Z,4.82
2023-03-19T06:13:51.685Z,4.87
2023-03-19T06:14:54.240Z,4.93
2023-03-19T06:16:14.128Z,5.00
2023-03-19T06:17:18.474Z,5.05
2023-03-19T06:18:21.822Z,5.07
2023-03-19T06:19:24.425Z,5.11
2023-03-19T06:20:28.540Z,5.12
2023-03-19T06:21:32.078Z,5.14
2023-03-19T06:22:37.517Z,5.20
2023-03-19T06:23:41.343Z,5.24
2023-03-19T06:24:44.307Z,5.30
2023-03-19T06:25:46.644Z,5.34
2023-03-19T06:26:49.641Z,5.34
2023-03-19T06:27:52.527Z,5.36
2023-03-19T06:28:56.860Z,5.39
2023-03-19T06:29:59.414Z,5.44
2023-03-19T06:31:04.129Z,5.44
2023-03-19T06:32:25.118Z,5.51
2023-03-19T06:33:30.378Z,5.59
2023-03-19T06:34:32.676Z,5.66
2023-03-19T06:35:35.099Z,5.70
2023-03-19T06:36:39.070Z,5.75
2023-03-19T06:37:43.513Z,5.78
2023-03-19T06:38:46.148Z,5.82
2023-03-19T06:39:48.921Z,5.86
2023-03-19T06:40:52.347Z,5.89
2023-03-19T06:41:57.326Z,5.96
2023-03-19T06:43:01.141Z,6.02
2023-03-19T06:44:05.365Z,6.07
2023-03-19T06:45:08.593Z,6.12
2023-03-19T06:46:11.969Z,6.15
2023-03-19T06:47:15.933Z,6.19
2023-03-19T06:48:18.727Z,6.23
2023-03-19T06:49:21.479Z,6.28
2023-03-19T06:50:24.568Z,6.32
2023-03-19T06:51:30.060Z,6.34
2023-03-19T06:52:32.374Z,6.38
2023-03-19T06:53:35.014Z,6.41
2023-03-19T06:54:38.465Z,6.44
2023-03-19T06:55:41.349Z,6.48
2023-03-19T06:56:44.338Z,6.52
2023-03-19T06:57:52.762Z,6.59
2023-03-19T06:58:56.776Z,6.62
2023-03-19T07:00:00.367Z,6.68
2023-03-19T07:01:03.100Z,6.72
2023-03-19T07:02:06.129Z,6.76
2023-03-19T07:03:10.375Z,6.80
2023-03-19T07:04:12.819Z,6.85
2023-03-19T07:05:15.261Z,6.91
2023-03-19T07:06:17.555Z,6.92
2023-03-19T07:07:20.608Z,6.96
2023-03-19T07:08:23.353Z,6.96
2023-03-19T07:09:27.261Z,6.92
2023-03-19T07:10:31.115Z,6.96
2023-03-19T07:11:35.831Z,7.00
2023-03-19T07:12:37.732Z,7.06
2023-03-19T07:13:41.825Z,7.01
2023-03-19T07:14:44.353Z,7.04
2023-03-19T07:15:47.020Z,7.02
2023-03-19T07:16:49.429Z,7.01
2023-03-19T07:17:51.888Z,6.99
2023-03-19T07:18:54.265Z,6.93
2023-03-19T07:19:56.631Z,6.94
2023-03-19T07:20:59.553Z,6.90
2023-03-19T07:22:01.866Z,6.85
2023-03-19T07:23:04.141Z,6.87
2023-03-19T07:24:07.493Z,6.89
2023-03-19T07:25:10.332Z,6.95
2023-03-19T07:26:13.206Z,6.96
2023-03-19T07:27:15.950Z,6.98
2023-03-19T07:28:18.432Z,7.04
2023-03-19T07:29:20.912Z,7.08
2023-03-19T07:30:23.878Z,7.11
2023-03-19T07:31:27.527Z,7.11
2023-03-19T07:32:32.645Z,7.17
2023-03-19T07:33:35.530Z,7.18
2023-03-19T07:34:37.970Z,7.23
2023-03-19T07:35:40.412Z,7.26
2023-03-19T07:36:43.042Z,7.29
2023-03-19T07:37:45.844Z,7.29
2023-03-19T07:38:48.250Z,7.39
2023-03-19T07:39:50.728Z,7.39
2023-03-19T07:41:01.880Z,7.44
2023-03-19T07:41:59.691Z,7.47
2023-03-19T07:43:03.859Z,7.47
2023-03-19T07:44:07.840Z,7.50
2023-03-19T07:45:11.469Z,7.55
2023-03-19T07:46:14.230Z,7.59
2023-03-19T07:47:28.551Z,7.65
2023-03-19T07:48:21.227Z,7.66
2023-03-19T07:49:24.083Z,7.72
2023-03-19T07:50:27.645Z,7.75
2023-03-19T07:51:30.060Z,7.79
2023-03-19T07:52:32.972Z,7.82
2023-03-19T07:53:36.245Z,7.86
2023-03-19T07:54:38.377Z,7.91
2023-03-19T07:55:42.937Z,7.96
2023-03-19T07:56:45.417Z,7.91
2023-03-19T07:57:47.950Z,7.93
2023-03-19T07:58:51.176Z,7.84
2023-03-19T07:59:54.004Z,7.84
2023-03-19T08:00:56.538Z,7.90
2023-03-19T08:01:59.294Z,7.90
2023-03-19T08:03:02.296Z,7.94
2023-03-19T08:04:05.165Z,7.96
2023-03-19T08:05:09.076Z,7.94
2023-03-19T08:06:12.766Z,7.91
2023-03-19T08:07:15.717Z,7.85
2023-03-19T08:08:19.680Z,7.82
2023-03-19T08:09:22.974Z,7.81
2023-03-19T08:10:25.611Z,7.86
2023-03-19T08:11:29.330Z,7.90
2023-03-19T08:12:33.736Z,7.93
2023-03-19T08:13:37.077Z,7.95
2023-03-19T08:14:39.914Z,7.99
2023-03-19T08:15:42.253Z,8.07
2023-03-19T08:16:44.942Z,8.11
2023-03-19T08:17:50.633Z,8.14
2023-03-19T08:18:54.143Z,8.11
2023-03-19T08:19:57.618Z,8.11
2023-03-19T08:21:02.193Z,8.13
2023-03-19T08:22:06.424Z,8.15
2023-03-19T08:23:10.028Z,8.16
2023-03-19T08:24:12.933Z,8.17
2023-03-19T08:25:15.780Z,8.18
2023-03-19T08:26:18.200Z,8.18
2023-03-19T08:27:20.856Z,8.18
2023-03-19T08:28:23.514Z,8.11
2023-03-19T08:29:27.118Z,8.03
2023-03-19T08:30:29.916Z,7.87
2023-03-19T08:31:33.085Z,7.58
2023-03-19T08:32:37.500Z,7.54
2023-03-19T08:33:41.748Z,7.61
2023-03-19T08:34:44.185Z,7.62
2023-03-19T08:35:46.580Z,7.55
2023-03-19T08:36:49.798Z,7.51
2023-03-19T08:37:53.140Z,7.38
2023-03-19T08:38:55.945Z,7.31
2023-03-19T08:39:59.792Z,7.27
2023-03-19T08:41:03.690Z,7.31
2023-03-19T08:42:06.765Z,7.33
2023-03-19T08:43:11.075Z,7.30
2023-03-19T08:44:13.669Z,7.31
2023-03-19T08:45:16.431Z,7.37
2023-03-19T08:46:19.234Z,7.43
2023-03-19T08:47:23.475Z,7.31
2023-03-19T08:48:27.707Z,7.35
2023-03-19T08:49:30.727Z,7.41
2023-03-19T08:50:33.682Z,7.48
2023-03-19T08:51:36.346Z,7.55
2023-03-19T08:52:38.683Z,7.51
2023-03-19T08:53:41.062Z,7.29
2023-03-19T08:54:43.790Z,7.26
2023-03-19T08:55:51.820Z,7.27
2023-03-19T08:56:54.289Z,7.36
2023-03-19T08:57:56.908Z,7.43
2023-03-19T08:58:59.396Z,7.50
2023-03-19T09:00:05.051Z,7.61
2023-03-19T09:01:10.380Z,7.72
2023-03-19T09:02:13.283Z,7.82
2023-03-19T09:03:17.303Z,7.93
2023-03-19T09:04:21.434Z,8.03
2023-03-19T09:05:23.843Z,8.11
2023-03-19T09:06:26.980Z,8.20
2023-03-19T09:07:29.890Z,8.31
2023-03-19T09:08:33.598Z,8.40
2023-03-19T09:09:37.200Z,8.45
2023-03-19T09:10:40.964Z,8.53
2023-03-19T09:11:43.417Z,8.63
2023-03-19T09:12:48.437Z,8.72
2023-03-19T09:13:50.497Z,8.70
2023-03-19T09:14:54.020Z,8.78
2023-03-19T09:15:56.621Z,8.85
2023-03-19T09:16:59.422Z,8.93
2023-03-19T09:18:02.838Z,9.00
2023-03-19T09:19:05.249Z,9.11
2023-03-19T09:20:09.775Z,9.11
2023-03-19T09:21:13.302Z,9.20
2023-03-19T09:22:15.707Z,9.11
2023-03-19T09:23:18.522Z,9.07
2023-03-19T09:24:22.132Z,9.07
2023-03-19T09:25:26.339Z,9.13
2023-03-19T09:26:28.783Z,9.13
2023-03-19T09:27:32.485Z,9.15
2023-03-19T09:28:35.910Z,9.13
2023-03-19T09:29:38.621Z,9.07
2023-03-19T09:30:42.012Z,9.00
2023-03-19T09:31:44.580Z,8.78
2023-03-19T09:32:47.103Z,8.59
2023-03-19T09:33:49.799Z,8.60
2023-03-19T09:34:52.787Z,8.60
2023-03-19T09:35:56.454Z,8.63
2023-03-19T09:36:59.628Z,8.64
2023-03-19T09:38:03.209Z,8.64
2023-03-19T09:39:07.977Z,8.66
2023-03-19T09:40:17.241Z,8.57
2023-03-19T09:41:52.444Z,8.56
2023-03-19T09:43:06.993Z,8.53
2023-03-19T09:44:35.479Z,8.43
2023-03-19T09:45:38.443Z,8.35
2023-03-19T09:47:06.124Z,8.24
2023-03-19T09:48:12.654Z,7.97
2023-03-19T09:49:30.328Z,7.82
2023-03-19T09:50:34.519Z,7.78
2023-03-19T09:51:47.398Z,7.60
2023-03-19T09:53:06.016Z,7.48
2023-03-19T09:54:16.285Z,7.50
2023-03-19T09:55:45.138Z,7.32
2023-03-19T09:56:48.171Z,7.33
2023-03-19T09:57:53.454Z,7.35
2023-03-19T09:58:56.684Z,7.36
2023-03-19T09:59:59.039Z,7.34
2023-03-19T10:01:02.280Z,7.30
2023-03-19T10:02:26.298Z,7.24
2023-03-19T10:03:51.782Z,7.22
2023-03-19T10:05:13.646Z,7.24
2023-03-19T10:06:33.093Z,7.25
2023-03-19T10:07:41.965Z,7.37
2023-03-19T10:09:18.793Z,7.33
2023-03-19T10:10:38.178Z,7.32
2023-03-19T10:12:08.789Z,7.44
2023-03-19T10:13:23.889Z,7.51
2023-03-19T10:14:56.940Z,7.55
2023-03-19T10:16:01.246Z,7.46
2023-03-19T10:17:08.086Z,7.42
2023-03-19T10:18:20.192Z,7.44
2023-03-19T10:19:26.121Z,7.43
2023-03-19T10:20:33.451Z,7.42
2023-03-19T10:21:45.035Z,7.43
2023-03-19T10:22:51.072Z,7.48
2023-03-19T10:24:04.008Z,7.62
2023-03-19T10:25:12.990Z,7.69
2023-03-19T10:26:21.051Z,7.78
2023-03-19T10:27:27.991Z,7.80
2023-03-19T10:28:32.055Z,7.83
2023-03-19T10:29:36.147Z,7.97
2023-03-19T10:30:41.836Z,8.06
2023-03-19T10:31:54.204Z,8.12
2023-03-19T10:33:24.600Z,8.19
2023-03-19T10:34:36.818Z,8.27
2023-03-19T10:35:42.902Z,8.24
2023-03-19T10:36:45.601Z,8.36
2023-03-19T10:37:50.347Z,8.43
2023-03-19T10:38:52.913Z,8.52
2023-03-19T10:40:00.796Z,8.54
2023-03-19T10:41:13.510Z,8.56
2023-03-19T10:42:40.245Z,8.63
2023-03-19T10:43:46.249Z,8.69
2023-03-19T10:44:52.194Z,8.78
2023-03-19T10:45:56.998Z,8.85
2023-03-19T10:47:02.924Z,8.85
2023-03-19T10:48:06.196Z,8.76
2023-03-19T10:49:14.507Z,8.83
2023-03-19T10:50:22.934Z,8.88
2023-03-19T10:51:26.914Z,8.82
2023-03-19T10:52:33.307Z,8.81
2023-03-19T10:53:38.105Z,8.75
2023-03-19T10:54:45.552Z,8.77
2023-03-19T10:56:03.977Z,8.88
2023-03-19T10:57:08.179Z,8.89
2023-03-19T10:58:20.091Z,8.78
2023-03-19T10:59:26.278Z,8.72
2023-03-19T11:00:32.111Z,8.86
2023-03-19T11:01:37.898Z,8.93
2023-03-19T11:02:49.713Z,8.89
2023-03-19T11:03:58.871Z,9.02
2023-03-19T11:05:12.005Z,9.11
2023-03-19T11:06:20.685Z,9.23
2023-03-19T11:07:26.845Z,9.24
2023-03-19T11:08:35.784Z,9.22
2023-03-19T11:09:39.469Z,9.11
2023-03-19T11:10:47.979Z,9.11
2023-03-19T11:11:56.795Z,9.18
2023-03-19T11:13:08.669Z,9.17
2023-03-19T11:14:17.328Z,9.18
2023-03-19T11:15:26.077Z,9.15
2023-03-19T11:16:28.598Z,9.20
2023-03-19T11:17:40.650Z,9.25
2023-03-19T11:18:47.546Z,9.26
2023-03-19T11:19:58.924Z,9.36
2023-03-19T11:21:08.826Z,9.47
2023-03-19T11:22:25.637Z,9.56
2023-03-19T11:23:30.143Z,9.66
2023-03-19T11:24:35.026Z,9.73
2023-03-19T11:25:44.109Z,9.84
2023-03-19T11:26:51.067Z,9.89
2023-03-19T11:28:03.047Z,9.73
2023-03-19T11:29:06.032Z,9.77
2023-03-19T11:30:20.438Z,9.82
2023-03-19T11:33:09.140Z,10.04
2023-03-19T11:34:33.469Z,9.92
2023-03-19T11:35:40.269Z,9.98
2023-03-19T11:36:58.883Z,9.97
2023-03-19T11:38:04.384Z,9.89
2023-03-19T11:39:30.014Z,9.78
2023-03-19T11:41:02.101Z,9.65
2023-03-19T11:42:34.083Z,9.68
2023-03-19T11:43:49.524Z,9.79
2023-03-19T11:45:05.157Z,9.80
2023-03-19T11:46:24.099Z,9.85
2023-03-19T11:47:37.067Z,10.02
2023-03-19T11:49:02.983Z,10.22
2023-03-19T11:50:29.252Z,10.39
2023-03-19T11:51:44.892Z,10.56
2023-03-19T11:53:18.011Z,10.65
2023-03-19T11:54:23.904Z,10.77
2023-03-19T11:55:38.335Z,10.86
2023-03-19T11:56:50.154Z,10.93
2023-03-19T11:58:01.803Z,10.92
2023-03-19T11:59:28.746Z,11.03
2023-03-19T12:00:52.612Z,11.08
2023-03-19T12:02:18.392Z,11.25
2023-03-19T12:04:59.699Z,11.51
2023-03-19T12:06:15.180Z,11.57
2023-03-19T12:07:38.757Z,11.66
2023-03-19T12:08:45.524Z,11.78
2023-03-19T12:09:52.523Z,11.84
2023-03-19T12:11:19.252Z,11.90
2023-03-19T12:12:29.254Z,11.97
2023-03-19T12:13:41.836Z,12.03
2023-03-19T12:14:50.802Z,12.03
2023-03-19T12:16:10.195Z,12.08
2023-03-19T12:17:44.894Z,12.09
2023-03-19T12:18:57.750Z,12.14
2023-03-19T12:20:32.082Z,12.02
2023-03-19T12:23:28.909Z,12.34
2023-03-19T12:24:57.793Z,12.29
2023-03-19T12:26:08.178Z,12.44
2023-03-19T12:27:38.874Z,12.53
2023-03-19T12:29:02.814Z,12.62
2023-03-19T12:30:24.870Z,12.76
2023-03-19T12:31:34.450Z,12.70
2023-03-19T12:33:01.763Z,12.55
2023-03-19T12:34:13.210Z,12.59
2023-03-19T12:35:19.216Z,12.73
2023-03-19T12:36:25.510Z,12.83
2023-03-19T12:37:32.301Z,12.76
2023-03-19T12:38:38.544Z,12.89
2023-03-19T12:39:45.033Z,12.85
2023-03-19T12:40:51.086Z,12.91
2023-03-19T12:41:57.727Z,13.03
2023-03-19T12:43:03.655Z,13.17
2023-03-19T12:44:22.630Z,13.24
2023-03-19T12:45:37.481Z,13.24
2023-03-19T12:46:47.368Z,13.22
2023-03-19T12:47:53.299Z,12.80
2023-03-19T12:49:15.237Z,12.61
2023-03-19T12:50:19.767Z,12.66
2023-03-19T12:51:26.126Z,12.91
2023-03-19T12:52:40.753Z,12.99
2023-03-19T12:53:47.865Z,13.06
2023-03-19T12:54:56.808Z,13.25
2023-03-19T12:56:02.719Z,13.44
2023-03-19T12:57:11.689Z,13.64
2023-03-19T12:58:48.018Z,13.76
2023-03-19T13:00:04.318Z,13.97
2023-03-19T13:01:12.394Z,14.16
2023-03-19T13:02:24.157Z,13.98
2023-03-19T13:03:39.106Z,13.94
2023-03-19T13:04:57.982Z,14.04
2023-03-19T13:06:10.109Z,14.10
2023-03-19T13:07:23.904Z,14.17
2023-03-19T13:08:41.871Z,14.19
2023-03-19T13:09:59.878Z,14.21
2023-03-19T13:11:05.809Z,14.16
2023-03-19T13:12:27.487Z,14.14
2023-03-19T13:13:43.914Z,14.00
2023-03-19T13:15:01.370Z,13.77
2023-03-19T13:16:10.272Z,13.65
2023-03-19T13:17:31.399Z,13.63
2023-03-19T13:18:42.164Z,13.86
2023-03-19T13:19:53.806Z,13.99
2023-03-19T13:21:15.173Z,14.02
2023-03-19T13:22:21.142Z,14.17
2023-03-19T13:23:27.162Z,14.35
2023-03-19T13:24:33.404Z,14.48
2023-03-19T13:25:42.457Z,14.58
2023-03-19T13:26:46.716Z,14.72
2023-03-19T13:27:55.793Z,14.83
2023-03-19T13:29:04.555Z,14.94
2023-03-19T13:30:14.409Z,14.89
2023-03-19T13:31:23.401Z,14.91
2023-03-19T13:32:33.321Z,14.92
2023-03-19T13:33:40.584Z,14.98
2023-03-19T13:34:42.991Z,15.01
2023-03-19T13:35:52.373Z,15.12
2023-03-19T13:37:02.241Z,15.22
2023-03-19T13:38:10.965Z,15.26
2023-03-19T13:39:20.756Z,15.33
2023-03-19T13:40:39.600Z,15.34
2023-03-19T13:41:45.576Z,15.32
2023-03-19T13:42:53.300Z,15.20
2023-03-19T13:43:56.395Z,15.26
2023-03-19T13:45:21.422Z,15.25
2023-03-19T13:46:30.444Z,15.39
2023-03-19T13:47:38.293Z,15.56
2023-03-19T13:48:52.482Z,15.21
2023-03-19T13:50:22.521Z,15.24
2023-03-19T13:51:29.034Z,15.35
2023-03-19T13:52:35.686Z,15.50
2023-03-19T13:53:41.916Z,15.64
2023-03-19T13:56:28.659Z,15.87
2023-03-19T13:57:21.929Z,15.74
2023-03-19T13:58:49.647Z,15.77
2023-03-19T13:59:52.063Z,15.85
2023-03-19T14:00:58.518Z,15.87
2023-03-19T14:02:22.374Z,15.86
2023-03-19T14:03:34.007Z,15.92
2023-03-19T14:04:38.703Z,16.03
2023-03-19T14:05:43.321Z,16.05
2023-03-19T14:06:50.524Z,16.05
2023-03-19T14:07:54.832Z,16.10
2023-03-19T14:08:57.415Z,16.12
2023-03-19T14:10:04.745Z,16.20
2023-03-19T14:11:08.802Z,16.04
2023-03-19T14:12:28.228Z,16.10
2023-03-19T14:13:40.294Z,16.22
2023-03-19T14:14:46.121Z,16.29
2023-03-19T14:15:51.195Z,16.32
2023-03-19T14:16:55.498Z,16.45
2023-03-19T14:18:02.406Z,16.54
2023-03-19T14:19:08.816Z,16.62
2023-03-19T14:20:16.728Z,16.63
2023-03-19T14:21:36.071Z,16.71
2023-03-19T14:22:42.108Z,16.79
2023-03-19T14:23:54.989Z,16.77
2023-03-19T14:25:17.671Z,16.52
2023-03-19T14:26:29.431Z,16.60
2023-03-19T14:27:33.678Z,16.70
2023-03-19T14:28:56.353Z,16.79
2023-03-19T14:30:11.634Z,16.60
2023-03-19T14:31:42.633Z,16.69
2023-03-19T14:32:48.379Z,16.58
2023-03-19T14:33:57.292Z,16.69
2023-03-19T14:35:02.242Z,16.76
2023-03-19T14:36:06.571Z,16.84
2023-03-19T14:37:35.072Z,16.88
2023-03-19T14:38:43.844Z,16.86
2023-03-19T14:41:07.350Z,16.96
2023-03-19T14:42:22.890Z,16.91
2023-03-19T14:43:35.200Z,16.79
2023-03-19T14:45:03.480Z,16.77
2023-03-19T14:46:07.075Z,16.76
2023-03-19T14:47:36.947Z,16.74
2023-03-19T14:49:09.453Z,16.74
2023-03-19T14:50:31.737Z,16.80
2023-03-19T14:51:40.859Z,16.90
2023-03-19T14:52:53.908Z,16.95
2023-03-19T14:53:59.969Z,16.77